Time;durP1;ratioP1;P1;durP2;ratioP2;P2;SDS_P1;SDS_P2;PMS_P1;PMS_P2;Temp;Humidity;BMP_temperature;BMP_pressure;BME280_temperature;BME280_humidity;BME280_pressure;Samples;Min_cycle;Max_cycle;Signal;HPM_P1;HPM_P2
2021/07/02 00:01:55;;;;;;;17.83;10.05;;;15.00;99.90;;;;;;5070137;28;20033;-69
2021/07/02 00:04:21;;;;;;;22.10;9.82;;;15.00;99.90;;;;;;5071605;28;20311;-69
2021/07/02 00:06:46;;;;;;;16.27;10.00;;;15.00;99.90;;;;;;5070968;28;20039;-69
2021/07/02 00:09:12;;;;;;;15.68;10.45;;;15.00;99.90;;;;;;5070204;28;20024;-69
2021/07/02 00:11:37;;;;;;;16.58;11.27;;;15.00;99.90;;;;;;5070819;28;20029;-70
2021/07/02 00:14:04;;;;;;;11.90;9.80;;;15.10;99.90;;;;;;5084904;28;20013;-70
2021/07/02 00:16:30;;;;;;;18.38;10.35;;;15.10;99.90;;;;;;5070740;28;20032;-69
2021/07/02 00:18:56;;;;;;;17.60;10.30;;;15.10;99.90;;;;;;5070962;28;20100;-70
2021/07/02 00:21:21;;;;;;;18.58;10.27;;;15.10;99.90;;;;;;5071156;28;20499;-70
2021/07/02 00:23:47;;;;;;;16.60;10.05;;;15.10;99.90;;;;;;5071053;28;20017;-70
2021/07/02 00:26:12;;;;;;;19.08;9.93;;;15.10;99.90;;;;;;5071745;28;20522;-70
2021/07/02 00:28:38;;;;;;;17.73;10.15;;;15.10;99.90;;;;;;5071485;28;20029;-69
2021/07/02 00:31:04;;;;;;;14.25;9.98;;;15.10;99.90;;;;;;5089670;28;20035;-70
2021/07/02 00:33:29;;;;;;;18.10;10.25;;;15.10;99.90;;;;;;5091923;28;20020;-69
2021/07/02 00:35:55;;;;;;;14.48;9.98;;;15.10;99.90;;;;;;5092485;28;20051;-70
2021/07/02 00:38:20;;;;;;;20.63;10.25;;;15.10;99.90;;;;;;5081649;28;20024;-69
2021/07/02 00:40:46;;;;;;;17.63;10.27;;;15.10;99.90;;;;;;5071237;28;20076;-70
2021/07/02 00:43:14;;;;;;;17.25;9.55;;;15.10;99.90;;;;;;5071108;28;20538;-69
2021/07/02 00:45:40;;;;;;;12.65;9.25;;;15.10;99.90;;;;;;5070470;28;20086;-70
2021/07/02 00:48:06;;;;;;;17.48;9.43;;;15.10;99.90;;;;;;5076046;28;20471;-69
2021/07/02 00:50:32;;;;;;;16.75;9.25;;;15.10;99.90;;;;;;5080239;28;20029;-70
2021/07/02 00:52:57;;;;;;;15.82;9.07;;;15.10;99.90;;;;;;5070472;28;20457;-69
2021/07/02 00:55:23;;;;;;;14.90;8.68;;;15.10;99.90;;;;;;5071489;28;20481;-70
2021/07/02 00:57:49;;;;;;;18.92;9.30;;;15.10;99.90;;;;;;5070413;28;20017;-69
2021/07/02 01:00:15;;;;;;;20.27;9.30;;;15.10;99.90;;;;;;5070907;28;20033;-69
2021/07/02 01:02:41;;;;;;;15.90;8.77;;;15.10;99.90;;;;;;5070385;28;20468;-69
2021/07/02 01:05:07;;;;;;;16.45;9.43;;;15.10;99.90;;;;;;5073156;28;20029;-69
2021/07/02 01:07:33;;;;;;;15.48;9.10;;;15.10;99.90;;;;;;5074683;28;20416;-70
2021/07/02 01:10:00;;;;;;;20.00;9.85;;;15.10;99.90;;;;;;5074841;28;20021;-70
2021/07/02 01:12:26;;;;;;;16.33;9.32;;;15.10;99.90;;;;;;5079339;28;20028;-70
2021/07/02 01:14:58;;;;;;;19.90;8.77;;;15.00;99.90;;;;;;5083103;28;20074;-70
2021/07/02 01:17:24;;;;;;;13.15;7.95;;;15.10;99.90;;;;;;5078947;28;20030;-70
2021/07/02 01:19:53;;;;;;;14.18;8.85;;;15.00;99.90;;;;;;5094035;28;20024;-70
2021/07/02 01:22:26;;;;;;;12.97;9.00;;;15.00;99.90;;;;;;5089124;28;20044;-69
2021/07/02 01:24:56;;;;;;;15.60;10.00;;;15.00;99.90;;;;;;5091885;28;20020;-71
2021/07/02 01:27:23;;;;;;;17.23;8.98;;;15.00;99.90;;;;;;5073768;28;20084;-69
2021/07/02 01:29:49;;;;;;;13.75;8.70;;;15.10;99.90;;;;;;5079549;28;20103;-70
2021/07/02 01:32:16;;;;;;;17.48;9.50;;;15.00;99.90;;;;;;5083532;28;20097;-70
2021/07/02 01:34:42;;;;;;;18.90;8.57;;;15.00;99.90;;;;;;5073781;28;20048;-70
2021/07/02 01:37:09;;;;;;;14.13;8.82;;;15.00;99.90;;;;;;5074337;28;20028;-71
2021/07/02 01:39:38;;;;;;;17.73;8.48;;;15.10;99.90;;;;;;5088872;28;20142;-70
2021/07/02 01:42:06;;;;;;;18.38;10.27;;;15.00;99.90;;;;;;5073308;28;20431;-70
2021/07/02 01:44:32;;;;;;;12.63;9.15;;;15.00;99.90;;;;;;5074610;28;20052;-70
2021/07/02 01:46:57;;;;;;;22.70;9.10;;;15.00;99.90;;;;;;5073104;28;20441;-69
2021/07/02 01:49:23;;;;;;;16.10;9.88;;;15.00;99.90;;;;;;5074264;28;20028;-70
2021/07/02 01:51:49;;;;;;;15.13;10.40;;;15.00;99.90;;;;;;5074074;28;20034;-69
2021/07/02 01:54:14;;;;;;;16.58;10.52;;;15.00;99.90;;;;;;5073491;28;20074;-70
2021/07/02 01:56:47;;;;;;;19.63;11.38;;;15.00;99.90;;;;;;5088173;28;20083;-69
2021/07/02 01:59:17;;;;;;;25.85;10.85;;;15.00;99.90;;;;;;5073964;28;20028;-70
2021/07/02 02:01:44;;;;;;;18.88;10.85;;;15.00;99.90;;;;;;5073211;28;20119;-70
2021/07/02 02:04:10;;;;;;;22.77;11.55;;;15.00;99.90;;;;;;5073988;28;20078;-70
2021/07/02 02:06:36;;;;;;;23.15;12.88;;;15.00;99.90;;;;;;5073946;28;20333;-70
2021/07/02 02:09:02;;;;;;;21.45;11.57;;;15.00;99.90;;;;;;5073166;28;20021;-70
2021/07/02 02:11:28;;;;;;;20.60;12.48;;;15.00;99.90;;;;;;5073855;28;20027;-70
2021/07/02 02:13:56;;;;;;;13.75;10.00;;;15.00;99.90;;;;;;5055756;28;20013;-68
2021/07/02 02:16:22;;;;;;;22.08;11.38;;;15.00;99.90;;;;;;5072239;28;20032;-70
2021/07/02 02:18:47;;;;;;;18.58;11.43;;;15.00;99.90;;;;;;5073576;28;20086;-69
2021/07/02 02:21:13;;;;;;;20.35;11.38;;;15.00;99.90;;;;;;5073650;28;20119;-69
2021/07/02 02:23:38;;;;;;;17.15;11.38;;;15.00;99.90;;;;;;5073215;28;20024;-70
2021/07/02 02:26:04;;;;;;;18.02;10.95;;;15.00;99.90;;;;;;5073973;28;20491;-70
2021/07/02 02:28:30;;;;;;;21.48;11.23;;;15.00;99.90;;;;;;5073784;28;20436;-71
2021/07/02 02:30:55;;;;;;;19.35;11.43;;;15.00;99.90;;;;;;5086937;28;20123;-69
2021/07/02 02:33:21;;;;;;;17.70;11.65;;;15.00;99.90;;;;;;5073525;28;20118;-69
2021/07/02 02:35:46;;;;;;;25.70;12.15;;;15.00;99.90;;;;;;5073568;28;20103;-71
2021/07/02 02:38:12;;;;;;;21.73;10.75;;;15.00;99.90;;;;;;5072579;28;20016;-70
2021/07/02 02:40:37;;;;;;;15.30;11.23;;;15.00;99.90;;;;;;5073488;28;20041;-70
2021/07/02 02:43:03;;;;;;;16.40;10.60;;;14.90;99.90;;;;;;5072928;28;20803;-70
2021/07/02 02:45:29;;;;;;;19.63;10.70;;;15.00;99.90;;;;;;5071914;28;20024;-70
2021/07/02 02:47:54;;;;;;;16.42;10.15;;;15.00;99.90;;;;;;5087043;28;20028;-71
2021/07/02 02:50:20;;;;;;;15.00;9.80;;;15.00;99.90;;;;;;5071661;28;20025;-70
2021/07/02 02:52:46;;;;;;;20.92;10.77;;;14.90;99.90;;;;;;5072417;28;20074;-71
2021/07/02 02:55:11;;;;;;;18.45;11.05;;;15.00;99.90;;;;;;5073075;28;20016;-70
2021/07/02 02:57:37;;;;;;;22.70;11.50;;;15.00;99.90;;;;;;5071799;28;20500;-70
2021/07/02 03:00:06;;;;;;;22.77;11.60;;;15.00;99.90;;;;;;5072027;28;20017;-69
2021/07/02 03:02:31;;;;;;;22.08;11.60;;;15.00;99.90;;;;;;5072522;28;20048;-70
2021/07/02 03:04:57;;;;;;;19.48;9.77;;;15.00;99.90;;;;;;5071292;28;20028;-70
2021/07/02 03:07:22;;;;;;;20.95;11.98;;;15.00;99.90;;;;;;5072735;28;20024;-69
2021/07/02 03:09:48;;;;;;;19.48;11.00;;;15.00;99.90;;;;;;5072237;28;20162;-69
2021/07/02 03:12:13;;;;;;;21.00;10.73;;;15.00;99.90;;;;;;5071038;28;20571;-70
2021/07/02 03:14:39;;;;;;;17.35;10.65;;;15.00;99.90;;;;;;5072210;28;20073;-70
2021/07/02 03:17:04;;;;;;;18.58;10.90;;;15.00;99.90;;;;;;5072211;28;20483;-69
2021/07/02 03:19:30;;;;;;;20.65;10.88;;;15.00;99.90;;;;;;5071995;28;20048;-69
2021/07/02 03:21:56;;;;;;;18.90;10.40;;;15.00;99.90;;;;;;5072512;28;20033;-69
2021/07/02 03:24:21;;;;;;;14.98;10.07;;;15.00;99.90;;;;;;5072300;28;20023;-70
2021/07/02 03:26:47;;;;;;;23.48;11.15;;;15.00;99.90;;;;;;5070639;28;20166;-70
2021/07/02 03:29:12;;;;;;;17.80;11.20;;;15.00;99.90;;;;;;5074053;28;20024;-69
2021/07/02 03:31:38;;;;;;;18.75;10.90;;;15.00;99.90;;;;;;5083921;28;20028;-69
2021/07/02 03:34:04;;;;;;;17.00;11.50;;;15.00;99.90;;;;;;5071101;28;20434;-69
2021/07/02 03:36:30;;;;;;;18.70;11.07;;;15.00;99.90;;;;;;5072272;28;20108;-69
2021/07/02 03:38:55;;;;;;;16.88;9.98;;;15.00;99.90;;;;;;5072041;28;20091;-69
2021/07/02 03:41:21;;;;;;;19.45;10.50;;;15.00;99.90;;;;;;5070720;28;20060;-69
2021/07/02 03:43:47;;;;;;;24.83;12.07;;;15.10;99.90;;;;;;5071787;28;20028;-70
2021/07/02 03:46:12;;;;;;;22.13;11.68;;;15.10;99.90;;;;;;5071380;28;20123;-69
2021/07/02 03:48:38;;;;;;;21.60;12.15;;;15.10;99.90;;;;;;5071553;28;20060;-68
2021/07/02 03:51:04;;;;;;;25.02;14.00;;;15.10;99.90;;;;;;5071479;28;20522;-69
2021/07/02 03:53:29;;;;;;;22.75;13.02;;;15.10;99.90;;;;;;5071876;28;20067;-70
2021/07/02 03:55:55;;;;;;;22.17;12.43;;;15.10;99.90;;;;;;5071225;28;20028;-69
2021/07/02 03:58:20;;;;;;;24.58;12.90;;;15.10;99.90;;;;;;5071405;28;20032;-70
2021/07/02 04:00:46;;;;;;;20.17;11.90;;;15.10;99.90;;;;;;5071220;28;20043;-69
2021/07/02 04:03:13;;;;;;;25.83;13.27;;;15.10;99.90;;;;;;5071738;28;20469;-70
2021/07/02 04:05:43;;;;;;;22.35;13.45;;;15.20;99.90;;;;;;5072404;28;20036;-69
2021/07/02 04:08:09;;;;;;;20.05;12.23;;;15.10;99.90;;;;;;5070851;28;20028;-69
2021/07/02 04:10:34;;;;;;;22.10;13.52;;;15.10;99.90;;;;;;5071653;28;20082;-70
2021/07/02 04:13:00;;;;;;;25.17;14.00;;;15.10;99.90;;;;;;5071450;28;20031;-70
2021/07/02 04:15:25;;;;;;;21.92;12.57;;;15.10;99.90;;;;;;5071055;28;20024;-70
2021/07/02 04:17:51;;;;;;;18.48;12.63;;;15.10;99.90;;;;;;5071875;28;20031;-71
2021/07/02 04:20:16;;;;;;;22.35;12.40;;;15.10;99.90;;;;;;5071253;28;20109;-69
2021/07/02 04:22:42;;;;;;;21.15;12.93;;;15.10;99.90;;;;;;5070968;28;20450;-69
2021/07/02 04:25:09;;;;;;;21.02;12.32;;;15.10;99.90;;;;;;5071001;28;20464;-69
2021/07/02 04:27:35;;;;;;;18.10;12.77;;;15.10;99.90;;;;;;5071453;28;20078;-69
2021/07/02 04:30:03;;;;;;;24.48;12.98;;;15.10;99.90;;;;;;5079000;28;20016;-69
2021/07/02 04:32:28;;;;;;;23.40;12.95;;;15.10;99.90;;;;;;5058079;28;20040;-70
2021/07/02 04:34:54;;;;;;;22.13;12.82;;;15.10;99.90;;;;;;5071615;28;20024;-70
2021/07/02 04:37:20;;;;;;;24.13;12.70;;;15.10;99.90;;;;;;5070472;28;20094;-70
2021/07/02 04:39:45;;;;;;;27.70;13.43;;;15.10;99.90;;;;;;5071001;28;20095;-70
2021/07/02 04:42:11;;;;;;;24.15;14.43;;;15.10;99.90;;;;;;5070861;28;20119;-71
2021/07/02 04:44:38;;;;;;;29.38;14.93;;;15.10;99.90;;;;;;5070703;28;20017;-70
2021/07/02 04:47:06;;;;;;;28.80;14.63;;;15.10;99.90;;;;;;5070901;28;20049;-69
2021/07/02 04:49:33;;;;;;;31.73;15.93;;;15.10;99.90;;;;;;5071164;28;20067;-69
2021/07/02 04:51:59;;;;;;;37.53;14.32;;;15.20;99.90;;;;;;5070218;28;20115;-69
2021/07/02 04:54:24;;;;;;;34.83;16.23;;;15.10;99.90;;;;;;5071789;28;20063;-69
2021/07/02 04:56:51;;;;;;;29.35;16.80;;;15.10;99.90;;;;;;5070798;28;20119;-69
2021/07/02 04:59:18;;;;;;;31.67;15.93;;;15.20;99.90;;;;;;5071045;28;20082;-70
2021/07/02 05:01:44;;;;;;;32.85;17.30;;;15.20;99.90;;;;;;5071046;28;20063;-69
2021/07/02 05:04:10;;;;;;;28.67;16.35;;;15.10;99.90;;;;;;5070486;28;20390;-68
2021/07/02 05:06:37;;;;;;;27.80;16.48;;;15.10;99.90;;;;;;5071055;28;20033;-70
2021/07/02 05:09:05;;;;;;;30.98;17.25;;;15.10;99.90;;;;;;5071034;28;20065;-70
2021/07/02 05:11:32;;;;;;;30.90;17.27;;;15.10;99.90;;;;;;5100893;28;20420;-70
2021/07/02 05:13:57;;;;;;;31.92;16.98;;;15.10;99.90;;;;;;5104755;28;20093;-70
2021/07/02 05:16:23;;;;;;;29.05;17.55;;;15.10;99.90;;;;;;5107826;28;20077;-70
2021/07/02 05:18:48;;;;;;;34.08;18.65;;;15.20;99.90;;;;;;5105969;28;20053;-70
2021/07/02 05:21:14;;;;;;;34.20;17.92;;;15.20;99.90;;;;;;5106818;28;20436;-70
2021/07/02 05:23:39;;;;;;;28.17;17.88;;;15.10;99.90;;;;;;5103943;28;20649;-70
2021/07/02 05:26:05;;;;;;;28.40;17.35;;;15.20;99.90;;;;;;5100457;28;20028;-70
2021/07/02 05:28:33;;;;;;;31.50;18.08;;;15.20;99.90;;;;;;5105532;28;20020;-70
2021/07/02 05:30:58;;;;;;;35.88;18.60;;;15.20;99.90;;;;;;5104013;28;20383;-71
2021/07/02 05:33:24;;;;;;;30.50;18.63;;;15.20;99.90;;;;;;5104893;28;20032;-70
2021/07/02 05:35:49;;;;;;;33.00;19.50;;;15.10;99.90;;;;;;5103855;28;20028;-70
2021/07/02 05:38:16;;;;;;;33.30;19.35;;;15.20;99.90;;;;;;5108854;28;20192;-70
2021/07/02 05:40:41;;;;;;;31.17;18.48;;;15.20;99.90;;;;;;5107017;28;20078;-70
2021/07/02 05:43:07;;;;;;;33.10;18.85;;;15.20;99.90;;;;;;5102320;28;20052;-70
2021/07/02 05:45:32;;;;;;;31.73;19.17;;;15.20;99.90;;;;;;5103480;28;20016;-70
2021/07/02 05:47:59;;;;;;;36.20;20.27;;;15.20;99.90;;;;;;5107390;28;20114;-70
2021/07/02 05:50:26;;;;;;;33.33;17.85;;;15.20;99.90;;;;;;5108246;28;20024;-69
2021/07/02 05:52:52;;;;;;;29.63;18.23;;;15.30;99.90;;;;;;5107968;28;20023;-70
2021/07/02 05:55:18;;;;;;;32.58;18.40;;;15.30;99.90;;;;;;5102389;28;20080;-70
2021/07/02 05:57:44;;;;;;;30.45;17.98;;;15.30;99.90;;;;;;5099557;28;20391;-69
2021/07/02 06:00:11;;;;;;;29.63;17.77;;;15.40;99.90;;;;;;5087152;28;20024;-71
2021/07/02 06:02:37;;;;;;;29.75;16.67;;;15.50;99.90;;;;;;5087938;28;20036;-70
2021/07/02 06:05:04;;;;;;;25.20;16.95;;;15.50;99.90;;;;;;5086893;28;20388;-70
2021/07/02 06:07:41;;;;;;;30.38;16.70;;;15.60;99.90;;;;;;5088927;28;20067;-71
2021/07/02 06:10:07;;;;;;;29.00;17.52;;;15.60;99.90;;;;;;5091046;28;20081;-70
2021/07/02 06:12:33;;;;;;;29.23;18.45;;;15.70;99.90;;;;;;5092978;28;20016;-71
2021/07/02 06:14:58;;;;;;;29.05;17.95;;;15.80;99.90;;;;;;5091472;28;20031;-71
2021/07/02 06:17:24;;;;;;;31.52;18.08;;;15.80;99.90;;;;;;5089798;28;20103;-71
2021/07/02 06:19:49;;;;;;;25.77;17.80;;;15.80;99.90;;;;;;5091295;28;20028;-71
2021/07/02 06:22:15;;;;;;;30.05;18.23;;;15.80;99.90;;;;;;5086782;28;20039;-70
2021/07/02 06:24:40;;;;;;;27.52;16.10;;;15.70;99.90;;;;;;5092314;28;20016;-69
2021/07/02 06:27:06;;;;;;;30.17;17.23;;;15.60;99.90;;;;;;5091347;28;20024;-70
2021/07/02 06:29:31;;;;;;;27.35;16.88;;;15.60;99.90;;;;;;5076679;28;20028;-69
2021/07/02 06:31:58;;;;;;;24.95;16.65;;;15.50;99.90;;;;;;5073030;28;20017;-69
2021/07/02 06:34:23;;;;;;;35.15;17.20;;;15.50;99.90;;;;;;5072935;28;20048;-69
2021/07/02 06:36:49;;;;;;;26.05;16.45;;;15.50;99.90;;;;;;5072375;28;20048;-70
2021/07/02 06:39:14;;;;;;;31.00;17.35;;;15.50;99.90;;;;;;5072450;28;20486;-70
2021/07/02 06:41:40;;;;;;;29.63;17.17;;;15.50;99.90;;;;;;5072821;28;20043;-70
2021/07/02 06:44:06;;;;;;;29.50;17.40;;;15.50;99.90;;;;;;5077042;28;20376;-70
2021/07/02 06:46:33;;;;;;;32.20;17.92;;;15.50;99.90;;;;;;5074725;28;20079;-70
2021/07/02 06:49:05;;;;;;;29.05;17.05;;;15.60;99.90;;;;;;5071701;28;20490;-70
2021/07/02 06:51:31;;;;;;;25.02;17.33;;;15.60;99.90;;;;;;5071893;28;20060;-70
2021/07/02 06:53:57;;;;;;;27.58;17.35;;;15.70;99.90;;;;;;5088547;28;20028;-70
2021/07/02 06:56:22;;;;;;;28.42;17.92;;;15.70;99.90;;;;;;5079135;28;20023;-72
2021/07/02 06:58:50;;;;;;;32.70;17.00;;;15.70;99.90;;;;;;5071136;28;20107;-72
2021/07/02 07:01:15;;;;;;;30.33;17.55;;;15.70;99.90;;;;;;5071600;28;20124;-72
2021/07/02 07:03:41;;;;;;;29.17;16.85;;;15.80;99.90;;;;;;5073207;28;20487;-71
2021/07/02 07:06:06;;;;;;;29.77;17.23;;;15.80;99.90;;;;;;5075704;28;20032;-72
2021/07/02 07:08:32;;;;;;;25.67;16.83;;;15.80;99.90;;;;;;5072363;28;20441;-72
2021/07/02 07:10:57;;;;;;;33.05;17.58;;;15.90;99.90;;;;;;5077541;28;20079;-72
2021/07/02 07:13:23;;;;;;;30.17;18.02;;;15.90;99.90;;;;;;5086615;28;20024;-73
2021/07/02 07:15:49;;;;;;;37.95;18.25;;;16.00;99.90;;;;;;5086484;28;20019;-72
2021/07/02 07:18:14;;;;;;;29.55;17.30;;;15.90;99.90;;;;;;5087207;28;20043;-72
2021/07/02 07:20:40;;;;;;;26.58;16.70;;;16.00;99.90;;;;;;5083845;28;20484;-73
2021/07/02 07:23:05;;;;;;;29.20;16.85;;;16.00;99.90;;;;;;5077112;28;20020;-73
2021/07/02 07:25:34;;;;;;;31.50;18.73;;;16.10;99.90;;;;;;5077657;28;20052;-73
2021/07/02 07:28:03;;;;;;;34.10;17.58;;;16.10;99.90;;;;;;5075988;28;20056;-74
2021/07/02 07:30:29;;;;;;;25.33;15.82;;;16.10;99.90;;;;;;5084314;28;20035;-72
2021/07/02 07:32:55;;;;;;;30.02;17.15;;;16.10;99.90;;;;;;5072837;28;20021;-73
2021/07/02 07:35:24;;;;;;;30.02;18.00;;;16.10;99.90;;;;;;5071737;28;20472;-72
2021/07/02 07:37:57;;;;;;;33.95;18.55;;;16.10;99.90;;;;;;5072298;28;20017;-72
2021/07/02 07:40:26;;;;;;;35.80;20.25;;;16.10;99.90;;;;;;5071796;28;20017;-72
2021/07/02 07:42:52;;;;;;;30.08;20.25;;;16.10;99.90;;;;;;5072130;28;20036;-72
2021/07/02 07:45:19;;;;;;;33.65;18.92;;;16.00;99.90;;;;;;5071823;28;20025;-71
2021/07/02 07:47:45;;;;;;;41.78;21.42;;;16.00;99.90;;;;;;5071511;28;20052;-73
2021/07/02 07:50:18;;;;;;;39.40;20.45;;;16.00;99.90;;;;;;5072557;28;20074;-72
2021/07/02 07:52:51;;;;;;;45.83;21.65;;;16.00;99.90;;;;;;5071633;28;20333;-71
2021/07/02 07:55:17;;;;;;;48.00;23.98;;;16.00;99.90;;;;;;5071576;28;20036;-70
2021/07/02 07:57:44;;;;;;;49.22;25.05;;;16.00;99.90;;;;;;5071897;28;20392;-71
2021/07/02 08:00:10;;;;;;;44.35;23.08;;;16.00;99.90;;;;;;5075877;28;20027;-72
2021/07/02 08:02:35;;;;;;;41.20;24.10;;;16.00;99.90;;;;;;5081417;28;20039;-70
2021/07/02 08:05:01;;;;;;;43.65;24.25;;;16.00;99.90;;;;;;5071826;28;20016;-72
2021/07/02 08:07:27;;;;;;;45.90;24.10;;;16.00;99.90;;;;;;5071405;28;20032;-72
2021/07/02 08:09:52;;;;;;;49.85;24.80;;;16.10;99.90;;;;;;5072027;28;20105;-72
2021/07/02 08:12:18;;;;;;;51.20;25.27;;;16.20;99.90;;;;;;5071550;28;20072;-72
2021/07/02 08:14:46;;;;;;;46.70;25.65;;;16.40;99.90;;;;;;5070219;28;20048;-72
2021/07/02 08:17:12;;;;;;;40.35;24.92;;;16.60;99.90;;;;;;5071147;28;20052;-72
2021/07/02 08:19:37;;;;;;;41.30;24.33;;;16.50;99.90;;;;;;5071640;28;20056;-73
2021/07/02 08:22:03;;;;;;;43.97;23.73;;;16.50;99.90;;;;;;5070313;28;20036;-72
2021/07/02 08:24:29;;;;;;;47.30;23.27;;;16.50;99.90;;;;;;5071496;28;20074;-72
2021/07/02 08:26:58;;;;;;;45.15;23.42;;;16.50;99.90;;;;;;5071548;28;20024;-73
2021/07/02 08:29:27;;;;;;;43.55;22.52;;;16.50;99.90;;;;;;5074432;28;20019;-72
2021/07/02 08:31:54;;;;;;;37.65;23.52;;;16.50;99.90;;;;;;5081478;28;20385;-73
2021/07/02 08:34:19;;;;;;;39.95;21.80;;;16.60;99.90;;;;;;5081318;28;20024;-71
2021/07/02 08:36:45;;;;;;;37.20;21.33;;;16.60;99.90;;;;;;5082564;28;20122;-73
2021/07/02 08:39:11;;;;;;;36.42;21.42;;;16.90;99.90;;;;;;5075929;28;20371;-71
2021/07/02 08:41:39;;;;;;;44.58;21.92;;;16.70;99.90;;;;;;5073857;28;20106;-71
2021/07/02 08:44:06;;;;;;;36.45;23.08;;;16.70;99.90;;;;;;5080994;28;20120;-71
2021/07/02 08:46:34;;;;;;;44.55;22.30;;;16.70;99.90;;;;;;5079867;28;20169;-71
2021/07/02 08:49:01;;;;;;;41.88;21.50;;;16.80;99.90;;;;;;5078719;28;20051;-72
2021/07/02 08:51:26;;;;;;;40.67;20.88;;;16.80;99.90;;;;;;5085666;28;20021;-69
2021/07/02 08:53:54;;;;;;;39.03;21.25;;;16.80;99.90;;;;;;5078785;28;20103;-73
2021/07/02 08:56:20;;;;;;;38.08;20.60;;;16.80;99.90;;;;;;5081035;28;20035;-72
2021/07/02 08:58:46;;;;;;;36.05;20.52;;;16.80;99.90;;;;;;5077594;28;20024;-69
2021/07/02 09:01:36;;;;;;;32.97;20.25;;;16.90;99.90;;;;;;5082996;28;20115;-70
2021/07/02 09:04:16;;;;;;;35.50;19.77;;;16.90;99.90;;;;;;5082445;28;20051;-70
2021/07/02 09:06:42;;;;;;;;;;;17.00;99.90;;;;;;5074666;28;20032;-70
2021/07/02 09:09:09;;;;;;;29.70;19.05;;;17.10;99.90;;;;;;5086078;28;19904;-71
2021/07/02 09:11:36;;;;;;;33.90;18.73;;;17.10;99.90;;;;;;5090794;28;20084;-71
2021/07/02 09:14:06;;;;;;;31.90;18.80;;;17.20;99.90;;;;;;5080053;28;20116;-71
2021/07/02 09:16:47;;;;;;;34.07;19.87;;;17.30;99.90;;;;;;5073159;28;20021;-71
2021/07/02 09:19:30;;;;;;;27.33;17.25;;;17.50;99.90;;;;;;5084842;28;20270;-71
2021/07/02 09:22:18;;;;;;;28.98;17.27;;;17.70;99.90;;;;;;5071271;28;20047;-72
2021/07/02 09:24:48;;;;;;;28.48;17.50;;;18.30;99.90;;;;;;5069721;28;20036;-71
2021/07/02 09:27:37;;;;;;;;;;;18.10;99.90;;;;;;5077133;28;20055;-72
2021/07/02 09:30:08;;;;;;;23.70;15.65;;;18.30;99.90;;;;;;5093872;28;19999;-71
2021/07/02 09:32:39;;;;;;;24.08;16.33;;;18.50;99.90;;;;;;5095562;28;20025;-71
2021/07/02 09:35:05;;;;;;;28.10;16.00;;;18.60;99.90;;;;;;5084620;28;20021;-71
2021/07/02 09:37:54;;;;;;;23.17;16.52;;;18.60;99.90;;;;;;5089690;28;20027;-71
2021/07/02 09:40:21;;;;;;;19.90;14.68;;;18.70;99.90;;;;;;5101542;28;20471;-71
2021/07/02 09:42:58;;;;;;;22.58;15.23;;;18.70;99.90;;;;;;5103734;28;20043;-71
2021/07/02 09:45:25;;;;;;;22.70;15.32;;;18.70;99.90;;;;;;5105705;28;20019;-71
2021/07/02 09:47:51;;;;;;;24.00;15.48;;;18.70;99.90;;;;;;5083446;28;20047;-71
2021/07/02 09:50:27;;;;;;;20.85;14.65;;;18.70;99.90;;;;;;5087007;28;20028;-71
2021/07/02 09:53:06;;;;;;;18.98;14.63;;;18.70;99.90;;;;;;5087147;28;20036;-71
2021/07/02 09:55:34;;;;;;;19.25;13.43;;;18.70;99.90;;;;;;5084751;28;20062;-70
2021/07/02 09:58:11;;;;;;;19.48;13.05;;;18.70;99.90;;;;;;5088404;28;20025;-71
2021/07/02 10:00:40;;;;;;;15.68;10.70;;;18.80;99.90;;;;;;5095375;28;20028;-71
2021/07/02 10:03:07;;;;;;;13.95;10.65;;;19.00;99.90;;;;;;5091088;28;20031;-71
2021/07/02 10:05:48;;;;;;;14.00;9.95;;;19.20;99.90;;;;;;5087226;28;20021;-71
2021/07/02 10:08:15;;;;;;;13.70;9.98;;;19.20;99.90;;;;;;5088571;28;20524;-70
2021/07/02 10:10:41;;;;;;;14.07;10.48;;;19.20;99.90;;;;;;5087724;28;20027;-70
2021/07/02 10:13:07;;;;;;;14.20;10.82;;;19.60;99.90;;;;;;5102957;28;20032;-71
2021/07/02 10:15:33;;;;;;;13.75;10.05;;;19.20;99.90;;;;;;5109158;28;20064;-71
2021/07/02 10:18:00;;;;;;;15.82;10.02;;;19.20;99.90;;;;;;5111256;28;20028;-71
2021/07/02 10:20:35;;;;;;;13.50;9.95;;;19.30;99.90;;;;;;5100261;28;20091;-72
2021/07/02 10:23:01;;;;;;;16.13;10.65;;;19.20;99.90;;;;;;5105405;28;20036;-72
2021/07/02 10:25:31;;;;;;;15.50;10.85;;;19.10;99.90;;;;;;5102373;28;20549;-71
2021/07/02 10:27:57;;;;;;;13.13;10.40;;;19.10;99.90;;;;;;5097739;28;20031;-71
2021/07/02 10:30:27;;;;;;;16.67;10.13;;;19.00;99.90;;;;;;5110538;28;20031;-71
2021/07/02 10:33:10;;;;;;;14.60;10.52;;;18.90;99.90;;;;;;5107677;28;20023;-72
2021/07/02 10:35:36;;;;;;;11.00;9.00;;;18.90;99.90;;;;;;5106711;28;20458;-71
2021/07/02 10:38:03;;;;;;;17.67;10.80;;;18.80;99.90;;;;;;5103468;28;20103;-71
2021/07/02 10:40:43;;;;;;;14.60;9.25;;;18.60;99.90;;;;;;5091083;28;20024;-71
2021/07/02 10:43:08;;;;;;;18.30;10.98;;;18.50;99.90;;;;;;5087857;28;20066;-71
2021/07/02 10:45:34;;;;;;;15.82;9.85;;;18.50;99.90;;;;;;5099886;28;20055;-71
2021/07/02 10:48:00;;;;;;;11.02;9.13;;;18.50;99.90;;;;;;5095967;28;20384;-71
2021/07/02 10:50:42;;;;;;;10.45;8.25;;;18.40;99.90;;;;;;5107214;28;20024;-71
2021/07/02 10:53:24;;;;;;;10.45;8.32;;;18.50;99.90;;;;;;5106011;28;20028;-70
2021/07/02 10:55:49;;;;;;;10.13;8.38;;;18.50;99.90;;;;;;5083560;28;20400;-70
2021/07/02 10:58:15;;;;;;;10.68;8.32;;;18.50;99.90;;;;;;5096007;28;20024;-71
2021/07/02 11:01:05;;;;;;;10.65;7.68;;;18.70;99.90;;;;;;5094998;28;20501;-70
2021/07/02 11:03:31;;;;;;;;;;;19.10;99.90;;;;;;5090559;28;20024;-70
2021/07/02 11:05:56;;;;;;;10.20;8.32;;;19.40;99.90;;;;;;5094654;28;19904;-71
2021/07/02 11:08:43;;;;;;;15.40;9.75;;;19.60;99.90;;;;;;5098430;28;20024;-72
2021/07/02 11:11:09;;;;;;;11.45;8.63;;;20.00;99.90;;;;;;5091903;28;20078;-71
2021/07/02 11:14:11;;;;;;;10.00;8.45;;;20.30;99.90;;;;;;5096775;28;20028;-71
2021/07/02 11:17:14;;;;;;;11.32;8.32;;;20.70;99.90;;;;;;5096712;28;20028;-71
2021/07/02 11:19:40;;;;;;;14.98;7.88;;;20.80;99.90;;;;;;5094316;28;20039;-71
2021/07/02 11:22:26;;;;;;;11.93;8.88;;;20.90;99.90;;;;;;5094020;28;20391;-70
2021/07/02 11:25:13;;;;;;;14.13;9.07;;;21.00;99.90;;;;;;5094365;28;20030;-70
2021/07/02 11:27:43;;;;;;;12.80;9.38;;;21.10;99.90;;;;;;5096174;28;20136;-69
2021/07/02 11:33:18;;;;;;;13.27;10.00;;;21.40;99.90;;;;;;5072644;28;20039;-70
2021/07/02 11:36:05;;;;;;;16.17;10.70;;;21.40;99.90;;;;;;5095785;28;20034;-70
2021/07/02 11:38:31;;;;;;;10.60;8.90;;;21.30;99.90;;;;;;5096292;28;20038;-70
2021/07/02 11:40:59;;;;;;;12.77;9.48;;;21.30;99.90;;;;;;5093056;28;20134;-71
2021/07/02 11:43:34;;;;;;;11.88;9.52;;;21.20;99.90;;;;;;5088747;28;20127;-70
2021/07/02 11:46:04;;;;;;;10.35;8.75;;;21.20;99.90;;;;;;5090536;28;20129;-72
2021/07/02 11:48:35;;;;;;;10.95;9.63;;;21.10;99.90;;;;;;5082595;28;20032;-69
2021/07/02 11:51:08;;;;;;;;;;;21.10;99.90;;;;;;5087410;28;20383;-71
2021/07/02 11:53:40;;;;;;;18.38;10.50;;;21.20;99.90;;;;;;5083362;28;20287;-73
2021/07/02 11:56:29;;;;;;;12.85;9.60;;;21.40;99.90;;;;;;5087464;28;20059;-71
2021/07/02 11:59:05;;;;;;;14.75;10.25;;;21.60;99.90;;;;;;5086753;28;20435;-72
2021/07/02 12:01:41;;;;;;;15.02;9.23;;;21.70;99.90;;;;;;5083251;28;20054;-73
2021/07/02 12:04:10;;;;;;;16.00;10.23;;;21.70;99.90;;;;;;5087956;28;20055;-72
2021/07/02 12:06:43;;;;;;;16.35;10.77;;;21.90;99.90;;;;;;5087777;28;20027;-71
2021/07/02 12:09:20;;;;;;;16.95;10.60;;;22.00;99.90;;;;;;5086835;28;20032;-72
2021/07/02 12:11:51;;;;;;;16.27;11.38;;;22.10;99.90;;;;;;5085552;28;20484;-72
2021/07/02 12:14:35;;;;;;;14.98;11.23;;;22.20;99.90;;;;;;5086783;28;20040;-72
2021/07/02 12:17:02;;;;;;;12.95;10.63;;;22.20;99.90;;;;;;5086129;28;20051;-72
2021/07/02 12:19:31;;;;;;;15.98;10.75;;;22.20;99.90;;;;;;5088098;28;20027;-71
2021/07/02 12:22:06;;;;;;;13.98;10.63;;;22.20;99.90;;;;;;5084706;28;20032;-72
2021/07/02 12:24:53;;;;;;;16.05;10.40;;;22.30;99.90;;;;;;5077677;28;20038;-71
2021/07/02 12:27:20;;;;;;;15.82;10.80;;;22.50;99.90;;;;;;5083376;28;20022;-72
2021/07/02 12:29:53;;;;;;;15.45;11.38;;;22.50;99.90;;;;;;5088144;28;20020;-73
2021/07/02 12:32:19;;;;;;;14.82;11.68;;;22.60;99.90;;;;;;5077681;28;20051;-71
2021/07/02 12:34:49;;;;;;;15.70;11.35;;;22.70;99.90;;;;;;5080655;28;20492;-71
2021/07/02 12:37:26;;;;;;;13.38;11.05;;;22.80;99.90;;;;;;5086516;28;20085;-72
2021/07/02 12:40:01;;;;;;;20.67;13.13;;;22.90;99.90;;;;;;5083785;28;20029;-70